createdAt,value
2023-05-22T00:01:22.988Z,2.70
2023-05-22T00:06:26.471Z,2.72
2023-05-22T00:11:29.633Z,1.77
2023-05-22T00:16:32.651Z,3.95
2023-05-22T00:21:37.845Z,1.33
2023-05-22T00:26:40.970Z,4.13
2023-05-22T00:31:44.080Z,3.72
2023-05-22T00:36:47.236Z,2.80
2023-05-22T00:41:50.354Z,1.67
2023-05-22T00:46:53.518Z,3.17
2023-05-22T00:51:56.836Z,1.02
2023-05-22T00:57:00.969Z,1.90
2023-05-22T01:02:04.267Z,2.92
2023-05-22T01:07:07.410Z,2.85
2023-05-22T01:12:35.836Z,2.85
2023-05-22T01:18:01.703Z,3.33
2023-05-22T01:23:15.538Z,1.73
2023-05-22T01:28:30.389Z,5.18
2023-05-22T01:33:39.674Z,6.63
2023-05-22T01:38:43.581Z,2.78
2023-05-22T01:43:46.847Z,3.97
2023-05-22T01:48:49.855Z,2.05
2023-05-22T01:54:03.624Z,2.20
2023-05-22T01:59:26.529Z,6.82
2023-05-22T02:04:31.128Z,6.10
2023-05-22T02:09:35.787Z,6.38
2023-05-22T02:14:43.092Z,3.80
2023-05-22T02:19:46.231Z,5.65
2023-05-22T02:24:50.313Z,3.95
2023-05-22T02:29:53.571Z,10.88
2023-05-22T02:34:57.063Z,13.10
2023-05-22T02:40:01.073Z,17.08
2023-05-22T02:45:08.557Z,12.25
2023-05-22T02:50:12.461Z,13.40
2023-05-22T02:55:15.764Z,13.93
2023-05-22T03:00:19.414Z,8.30
2023-05-22T03:05:22.584Z,8.07
2023-05-22T03:10:28.207Z,5.22
2023-05-22T03:15:31.367Z,9.52
2023-05-22T03:20:43.983Z,5.72
2023-05-22T03:25:48.137Z,5.20
2023-05-22T03:30:51.314Z,6.38
2023-05-22T03:35:59.453Z,11.63
2023-05-22T03:41:03.128Z,4.97
2023-05-22T03:46:11.079Z,4.68
2023-05-22T03:56:17.504Z,5.00
2023-05-22T04:01:23.964Z,7.50
2023-05-22T04:06:27.306Z,8.07
2023-05-22T04:11:30.763Z,8.32
2023-05-22T04:16:34.345Z,13.20
2023-05-22T04:21:38.610Z,14.60
2023-05-22T04:26:42.691Z,12.57
2023-05-22T04:31:48.771Z,8.80
2023-05-22T04:36:51.867Z,14.27
2023-05-22T04:41:55.098Z,9.23
2023-05-22T04:46:59.739Z,6.57
2023-05-22T04:52:05.045Z,11.82
2023-05-22T04:57:08.130Z,5.97
2023-05-22T05:02:11.687Z,8.73
2023-05-22T05:07:18.045Z,4.38
2023-05-22T05:12:21.286Z,10.27
2023-05-22T05:17:24.505Z,6.78
2023-05-22T05:22:27.611Z,8.90
2023-05-22T05:27:30.881Z,16.70
2023-05-22T05:32:34.598Z,10.73
2023-05-22T05:38:02.016Z,9.30
2023-05-22T05:43:09.268Z,6.05
2023-05-22T05:48:13.319Z,8.30
2023-05-22T05:53:19.783Z,7.30
2023-05-22T05:58:31.778Z,11.10
2023-05-22T06:03:53.631Z,5.88
2023-05-22T06:09:03.593Z,8.27
2023-05-22T06:14:10.315Z,11.00
2023-05-22T06:19:13.561Z,11.50
2023-05-22T06:24:17.530Z,7.35
2023-05-22T06:29:20.678Z,14.65
2023-05-22T06:34:25.978Z,4.38
2023-05-22T06:39:31.172Z,3.03
2023-05-22T06:44:49.024Z,3.55
2023-05-22T06:49:52.402Z,7.10
2023-05-22T06:54:55.727Z,7.60
2023-05-22T06:59:59.330Z,11.70
2023-05-22T07:05:22.434Z,7.60
2023-05-22T07:10:34.836Z,8.50
2023-05-22T07:15:38.703Z,8.55
2023-05-22T07:20:44.696Z,9.95
2023-05-22T07:25:51.553Z,11.68
2023-05-22T07:30:57.831Z,20.58
2023-05-22T07:36:01.022Z,8.95
2023-05-22T07:41:05.140Z,11.13
2023-05-22T07:46:11.909Z,5.72
2023-05-22T07:51:25.415Z,7.35
2023-05-22T07:56:28.990Z,4.72
2023-05-22T08:01:33.058Z,3.05
2023-05-22T08:06:44.718Z,4.60
2023-05-22T08:11:48.226Z,2.25
2023-05-22T08:16:51.515Z,5.15
2023-05-22T08:21:58.498Z,7.95
2023-05-22T08:27:01.629Z,12.98
2023-05-22T08:32:05.189Z,13.55
2023-05-22T08:37:09.779Z,5.93
2023-05-22T08:42:12.980Z,10.25
2023-05-22T08:47:16.675Z,7.50
2023-05-22T08:52:22.945Z,6.65
2023-05-22T08:57:27.186Z,1.90
2023-05-22T09:02:31.953Z,9.50
2023-05-22T09:07:35.680Z,7.95
2023-05-22T09:12:38.802Z,3.58
2023-05-22T09:17:42.046Z,4.47
2023-05-22T09:22:47.619Z,11.98
2023-05-22T09:27:51.175Z,12.30
2023-05-22T09:32:55.447Z,23.38
2023-05-22T09:37:59.592Z,20.38
2023-05-22T09:43:07.094Z,17.17
2023-05-22T09:48:10.942Z,14.65
2023-05-22T09:53:17.059Z,9.80
2023-05-22T09:58:20.696Z,14.07
2023-05-22T10:03:25.426Z,11.43
2023-05-22T10:08:29.297Z,17.15
2023-05-22T10:13:33.277Z,13.35
2023-05-22T10:18:37.731Z,13.57
2023-05-22T10:23:41.999Z,7.93
2023-05-22T10:28:56.027Z,8.88
2023-05-22T10:34:07.685Z,5.38
2023-05-22T10:39:22.785Z,6.60
2023-05-22T10:44:26.074Z,8.70
2023-05-22T10:49:29.271Z,3.53
2023-05-22T10:54:43.659Z,6.72
2023-05-22T10:59:50.057Z,5.72
2023-05-22T11:04:53.283Z,7.65
2023-05-22T11:10:00.937Z,6.40
2023-05-22T11:15:11.359Z,8.02
2023-05-22T11:20:23.189Z,5.63
2023-05-22T11:25:29.305Z,8.63
2023-05-22T11:30:34.392Z,7.43
2023-05-22T11:35:38.946Z,5.20
2023-05-22T11:40:42.628Z,6.72
2023-05-22T11:45:45.913Z,8.63
2023-05-22T11:50:49.201Z,4.80
2023-05-22T11:55:52.522Z,10.38
2023-05-22T12:01:03.060Z,6.35
2023-05-22T12:06:06.562Z,6.53
2023-05-22T12:11:12.189Z,6.30
2023-05-22T12:16:19.921Z,5.47
2023-05-22T12:21:23.078Z,2.47
2023-05-22T12:26:26.111Z,2.88
2023-05-22T12:31:36.135Z,4.25
2023-05-22T12:36:40.546Z,7.22
2023-05-22T12:41:47.766Z,3.58
2023-05-22T12:46:52.659Z,6.10
2023-05-22T12:51:55.777Z,3.17
2023-05-22T12:56:58.849Z,2.83
2023-05-22T13:02:03.587Z,4.95
2023-05-22T13:07:06.738Z,2.30
2023-05-22T13:12:11.472Z,6.13
2023-05-22T13:17:14.565Z,5.43
2023-05-22T13:22:18.031Z,8.18
2023-05-22T13:27:21.161Z,3.65
2023-05-22T13:32:24.392Z,1.38
2023-05-22T13:37:27.574Z,4.53
2023-05-22T13:42:30.973Z,5.82
2023-05-22T13:47:34.646Z,6.28
2023-05-22T13:52:39.065Z,2.88
2023-05-22T13:57:42.665Z,2.30
2023-05-22T14:02:46.913Z,2.95
2023-05-22T14:07:50.722Z,4.90
2023-05-22T14:12:54.939Z,1.50
2023-05-22T14:17:58.142Z,2.45
2023-05-22T14:23:01.247Z,1.67
2023-05-22T14:28:04.326Z,2.70
2023-05-22T14:33:08.111Z,9.35
2023-05-22T14:38:11.133Z,4.70
2023-05-22T14:43:14.232Z,6.32
2023-05-22T14:48:17.501Z,5.05
2023-05-22T14:53:21.114Z,4.00
2023-05-22T14:58:24.178Z,2.70
2023-05-22T15:03:27.462Z,5.40
2023-05-22T15:08:30.500Z,4.18
2023-05-22T15:13:33.612Z,4.70
2023-05-22T15:18:36.665Z,3.70
2023-05-22T15:23:40.065Z,5.95
2023-05-22T15:28:43.030Z,3.80
2023-05-22T15:33:46.839Z,3.25
2023-05-22T15:38:50.120Z,6.65
2023-05-22T15:43:53.699Z,5.32
2023-05-22T15:48:56.746Z,6.53
2023-05-22T15:53:59.810Z,6.22
2023-05-22T15:59:02.809Z,4.13
2023-05-22T16:04:06.411Z,3.20
2023-05-22T16:09:10.339Z,6.20
2023-05-22T16:14:13.729Z,11.43
2023-05-22T16:19:16.895Z,17.33
2023-05-22T16:24:20.022Z,16.63
2023-05-22T16:29:23.156Z,13.77
2023-05-22T16:34:26.288Z,17.20
2023-05-22T16:39:29.478Z,12.52
2023-05-22T16:44:32.782Z,11.30
2023-05-22T16:49:35.976Z,18.98
2023-05-22T16:54:39.213Z,15.30
2023-05-22T16:59:42.896Z,16.13
2023-05-22T17:04:46.714Z,18.20
2023-05-22T17:09:49.971Z,19.65
2023-05-22T17:14:52.964Z,11.80
2023-05-22T17:19:56.070Z,9.95
2023-05-22T17:24:59.060Z,7.65
2023-05-22T17:30:02.256Z,16.40
2023-05-22T17:35:08.590Z,18.75
2023-05-22T17:40:11.751Z,19.17
2023-05-22T17:45:15.049Z,10.93
2023-05-22T17:50:18.364Z,25.70
2023-05-22T17:55:21.622Z,23.45
2023-05-22T18:00:24.899Z,14.48
2023-05-22T18:05:27.947Z,7.72
2023-05-22T18:10:31.076Z,7.32
2023-05-22T18:15:34.252Z,5.70
2023-05-22T18:20:38.136Z,8.45
2023-05-22T18:26:10.124Z,13.32
2023-05-22T18:31:13.262Z,13.20
2023-05-22T18:36:16.938Z,15.18
2023-05-22T18:41:20.391Z,16.75
2023-05-22T18:46:24.217Z,14.35
2023-05-22T18:51:27.341Z,15.57
2023-05-22T18:56:33.153Z,13.48
2023-05-22T19:01:36.251Z,9.73
2023-05-22T19:06:42.457Z,10.45
2023-05-22T19:11:45.407Z,13.05
2023-05-22T19:16:48.603Z,11.02
2023-05-22T19:21:51.667Z,13.25
2023-05-22T19:26:54.810Z,7.43
2023-05-22T19:31:57.931Z,7.40
2023-05-22T19:37:01.313Z,6.75
2023-05-22T19:42:08.423Z,5.43
2023-05-22T19:47:11.643Z,5.45
2023-05-22T19:52:14.752Z,5.18
2023-05-22T19:57:17.817Z,5.88
2023-05-22T20:02:21.064Z,3.45
2023-05-22T20:07:24.410Z,7.05
2023-05-22T20:12:27.569Z,5.68
2023-05-22T20:17:31.039Z,3.83
2023-05-22T20:22:34.120Z,3.78
2023-05-22T20:27:37.401Z,6.43
2023-05-22T20:32:43.417Z,4.88
2023-05-22T20:37:47.077Z,4.40
2023-05-22T20:42:50.786Z,4.53
2023-05-22T20:47:54.715Z,5.32
2023-05-22T20:53:01.896Z,4.50
2023-05-22T20:58:05.124Z,4.13
2023-05-22T21:03:08.330Z,5.63
2023-05-22T21:08:11.475Z,4.43
2023-05-22T21:13:14.661Z,6.63
2023-05-22T21:18:20.017Z,6.30
2023-05-22T21:23:24.656Z,23.20
2023-05-22T21:28:27.981Z,28.55
2023-05-22T21:33:31.052Z,28.40
2023-05-22T21:38:34.096Z,7.63
2023-05-22T21:43:37.106Z,4.07
2023-05-22T21:48:40.097Z,3.72
2023-05-22T21:53:43.205Z,5.30
2023-05-22T21:58:46.217Z,4.45
2023-05-22T22:03:49.295Z,4.30
2023-05-22T22:08:53.545Z,13.07
2023-05-22T22:13:56.759Z,11.18
2023-05-22T22:19:01.427Z,13.85
2023-05-22T22:24:05.161Z,19.90
2023-05-22T22:29:08.264Z,19.45
2023-05-22T22:34:11.301Z,13.82
2023-05-22T22:39:14.345Z,13.43
2023-05-22T22:44:17.480Z,17.30
2023-05-22T22:49:22.035Z,14.60
2023-05-22T22:54:25.351Z,7.97
2023-05-22T22:59:28.588Z,6.65
2023-05-22T23:04:31.890Z,4.97
2023-05-22T23:09:35.056Z,7.05
2023-05-22T23:14:38.229Z,9.95
2023-05-22T23:19:41.364Z,3.40
2023-05-22T23:24:44.435Z,4.03
2023-05-22T23:29:47.618Z,4.70
2023-05-22T23:34:50.766Z,6.40
2023-05-22T23:39:54.900Z,4.72
2023-05-22T23:44:58.032Z,5.32
2023-05-22T23:50:01.081Z,5.25
2023-05-22T23:55:07.272Z,4.95
